sensor_id;sensor_type;location;lat;lon;timestamp;temperature;humidity
8489;DHT22;4281;45.772;12.852;2022-07-12T00:00:24;26.20;99.90
8489;DHT22;4281;45.772;12.852;2022-07-12T00:02:53;26.10;99.90
8489;DHT22;4281;45.772;12.852;2022-07-12T00:05:22;26.10;99.90
8489;DHT22;4281;45.772;12.852;2022-07-12T00:07:52;26.10;99.90
8489;DHT22;4281;45.772;12.852;2022-07-12T00:10:20;26.10;99.90
8489;DHT22;4281;45.772;12.852;2022-07-12T00:12:49;26.10;99.90
8489;DHT22;4281;45.772;12.852;2022-07-12T00:15:18;25.90;99.90
8489;DHT22;4281;45.772;12.852;2022-07-12T00:17:46;25.70;99.90
8489;DHT22;4281;45.772;12.852;2022-07-12T00:20:15;25.60;99.90
8489;DHT22;4281;45.772;12.852;2022-07-12T00:22:43;25.60;99.90
8489;DHT22;4281;45.772;12.852;2022-07-12T00:25:14;25.30;99.90
8489;DHT22;4281;45.772;12.852;2022-07-12T00:27:43;25.30;99.90
8489;DHT22;4281;45.772;12.852;2022-07-12T00:30:12;25.20;99.90
8489;DHT22;4281;45.772;12.852;2022-07-12T00:32:40;25.20;99.90
8489;DHT22;4281;45.772;12.852;2022-07-12T00:35:08;25.30;99.90
8489;DHT22;4281;45.772;12.852;2022-07-12T00:37:37;24.90;99.90
8489;DHT22;4281;45.772;12.852;2022-07-12T00:40:06;25.00;99.90
8489;DHT22;4281;45.772;12.852;2022-07-12T00:42:37;24.90;99.90
8489;DHT22;4281;45.772;12.852;2022-07-12T00:45:08;24.50;99.90
8489;DHT22;4281;45.772;12.852;2022-07-12T00:47:38;24.60;99.90
8489;DHT22;4281;45.772;12.852;2022-07-12T00:50:09;24.70;99.90
8489;DHT22;4281;45.772;12.852;2022-07-12T00:52:38;24.70;99.90
8489;DHT22;4281;45.772;12.852;2022-07-12T00:55:09;24.60;99.90
8489;DHT22;4281;45.772;12.852;2022-07-12T00:57:39;24.30;99.90
8489;DHT22;4281;45.772;12.852;2022-07-12T01:00:12;24.40;99.90
8489;DHT22;4281;45.772;12.852;2022-07-12T01:02:41;24.50;99.90
8489;DHT22;4281;45.772;12.852;2022-07-12T01:05:10;24.70;99.90
8489;DHT22;4281;45.772;12.852;2022-07-12T01:07:39;24.80;99.90
8489;DHT22;4281;45.772;12.852;2022-07-12T01:10:09;24.80;99.90
8489;DHT22;4281;45.772;12.852;2022-07-12T01:12:39;24.40;99.90
8489;DHT22;4281;45.772;12.852;2022-07-12T01:15:08;24.40;99.90
8489;DHT22;4281;45.772;12.852;2022-07-12T01:17:38;24.70;99.90
8489;DHT22;4281;45.772;12.852;2022-07-12T01:20:07;24.70;99.90
8489;DHT22;4281;45.772;12.852;2022-07-12T01:22:37;24.60;99.90
8489;DHT22;4281;45.772;12.852;2022-07-12T01:25:09;24.70;99.90
8489;DHT22;4281;45.772;12.852;2022-07-12T01:27:38;24.80;99.90
8489;DHT22;4281;45.772;12.852;2022-07-12T01:30:07;24.80;99.90
8489;DHT22;4281;45.772;12.852;2022-07-12T01:32:36;24.80;99.90
8489;DHT22;4281;45.772;12.852;2022-07-12T01:35:06;24.80;99.90
8489;DHT22;4281;45.772;12.852;2022-07-12T01:37:36;24.80;99.90
8489;DHT22;4281;45.772;12.852;2022-07-12T01:40:06;24.30;99.90
8489;DHT22;4281;45.772;12.852;2022-07-12T01:42:37;24.10;99.90
8489;DHT22;4281;45.772;12.852;2022-07-12T01:45:07;24.10;99.90
8489;DHT22;4281;45.772;12.852;2022-07-12T01:47:36;24.40;99.90
8489;DHT22;4281;45.772;12.852;2022-07-12T01:50:06;24.40;99.90
8489;DHT22;4281;45.772;12.852;2022-07-12T01:52:35;24.50;99.90
8489;DHT22;4281;45.772;12.852;2022-07-12T01:55:05;24.00;99.90
8489;DHT22;4281;45.772;12.852;2022-07-12T01:57:33;24.00;99.90
8489;DHT22;4281;45.772;12.852;2022-07-12T02:00:06;24.00;99.90
8489;DHT22;4281;45.772;12.852;2022-07-12T02:02:35;23.80;99.90
8489;DHT22;4281;45.772;12.852;2022-07-12T02:05:03;24.00;99.90
8489;DHT22;4281;45.772;12.852;2022-07-12T02:07:32;23.90;99.90
8489;DHT22;4281;45.772;12.852;2022-07-12T02:10:01;24.00;99.90
8489;DHT22;4281;45.772;12.852;2022-07-12T02:12:29;23.80;99.90
8489;DHT22;4281;45.772;12.852;2022-07-12T02:14:57;23.90;99.90
8489;DHT22;4281;45.772;12.852;2022-07-12T02:17:27;23.90;99.90
8489;DHT22;4281;45.772;12.852;2022-07-12T02:19:56;23.90;99.90
8489;DHT22;4281;45.772;12.852;2022-07-12T02:22:24;23.60;99.90
8489;DHT22;4281;45.772;12.852;2022-07-12T02:24:52;23.20;99.90
8489;DHT22;4281;45.772;12.852;2022-07-12T02:27:21;23.20;99.90
8489;DHT22;4281;45.772;12.852;2022-07-12T02:29:49;23.40;99.90
8489;DHT22;4281;45.772;12.852;2022-07-12T02:32:17;23.60;99.90
8489;DHT22;4281;45.772;12.852;2022-07-12T02:34:47;23.50;99.90
8489;DHT22;4281;45.772;12.852;2022-07-12T02:37:16;23.40;99.90
8489;DHT22;4281;45.772;12.852;2022-07-12T02:39:44;23.50;99.90
8489;DHT22;4281;45.772;12.852;2022-07-12T02:42:12;23.50;99.90
8489;DHT22;4281;45.772;12.852;2022-07-12T02:44:40;23.50;99.90
8489;DHT22;4281;45.772;12.852;2022-07-12T02:47:09;23.60;99.90
8489;DHT22;4281;45.772;12.852;2022-07-12T02:49:37;23.50;99.90
8489;DHT22;4281;45.772;12.852;2022-07-12T02:52:07;23.30;99.90
8489;DHT22;4281;45.772;12.852;2022-07-12T02:54:36;23.20;99.90
8489;DHT22;4281;45.772;12.852;2022-07-12T02:57:05;23.10;99.90
8489;DHT22;4281;45.772;12.852;2022-07-12T02:59:33;23.00;99.90
8489;DHT22;4281;45.772;12.852;2022-07-12T03:02:01;22.90;99.90
8489;DHT22;4281;45.772;12.852;2022-07-12T03:04:30;23.00;99.90
8489;DHT22;4281;45.772;12.852;2022-07-12T03:06:58;23.00;99.90
8489;DHT22;4281;45.772;12.852;2022-07-12T03:09:28;23.30;99.90
8489;DHT22;4281;45.772;12.852;2022-07-12T03:11:57;23.40;99.90
8489;DHT22;4281;45.772;12.852;2022-07-12T03:14:25;23.50;99.90
8489;DHT22;4281;45.772;12.852;2022-07-12T03:16:54;23.30;99.90
8489;DHT22;4281;45.772;12.852;2022-07-12T03:19:22;23.50;99.90
8489;DHT22;4281;45.772;12.852;2022-07-12T03:21:50;23.70;99.90
8489;DHT22;4281;45.772;12.852;2022-07-12T03:24:19;23.50;99.90
8489;DHT22;4281;45.772;12.852;2022-07-12T03:26:49;23.40;99.90
8489;DHT22;4281;45.772;12.852;2022-07-12T03:29:18;23.40;99.90
8489;DHT22;4281;45.772;12.852;2022-07-12T03:31:47;23.40;99.90
8489;DHT22;4281;45.772;12.852;2022-07-12T03:34:16;23.40;99.90
8489;DHT22;4281;45.772;12.852;2022-07-12T03:36:44;23.20;99.90
8489;DHT22;4281;45.772;12.852;2022-07-12T03:39:12;23.00;99.90
8489;DHT22;4281;45.772;12.852;2022-07-12T03:41:41;23.20;99.90
8489;DHT22;4281;45.772;12.852;2022-07-12T03:44:11;23.30;99.90
8489;DHT22;4281;45.772;12.852;2022-07-12T03:46:40;23.10;99.90
8489;DHT22;4281;45.772;12.852;2022-07-12T03:49:08;22.90;99.90
8489;DHT22;4281;45.772;12.852;2022-07-12T03:51:37;23.10;99.90
8489;DHT22;4281;45.772;12.852;2022-07-12T03:54:05;23.20;99.90
8489;DHT22;4281;45.772;12.852;2022-07-12T03:56:34;23.40;99.90
8489;DHT22;4281;45.772;12.852;2022-07-12T03:59:22;23.50;99.90
8489;DHT22;4281;45.772;12.852;2022-07-12T04:01:50;23.40;99.90
8489;DHT22;4281;45.772;12.852;2022-07-12T04:04:19;23.40;99.90
8489;DHT22;4281;45.772;12.852;2022-07-12T04:06:47;23.40;99.90
8489;DHT22;4281;45.772;12.852;2022-07-12T04:09:15;23.20;99.90
8489;DHT22;4281;45.772;12.852;2022-07-12T04:11:44;23.00;99.90
8489;DHT22;4281;45.772;12.852;2022-07-12T04:14:12;22.90;99.90
8489;DHT22;4281;45.772;12.852;2022-07-12T04:16:42;22.90;99.90
8489;DHT22;4281;45.772;12.852;2022-07-12T04:19:11;22.70;99.90
8489;DHT22;4281;45.772;12.852;2022-07-12T04:21:40;22.50;99.90
8489;DHT22;4281;45.772;12.852;2022-07-12T04:24:08;22.60;99.90
8489;DHT22;4281;45.772;12.852;2022-07-12T04:26:36;22.60;99.90
8489;DHT22;4281;45.772;12.852;2022-07-12T04:29:04;22.70;99.90
8489;DHT22;4281;45.772;12.852;2022-07-12T04:31:33;22.80;99.90
8489;DHT22;4281;45.772;12.852;2022-07-12T04:34:03;22.90;99.90
8489;DHT22;4281;45.772;12.852;2022-07-12T04:36:31;22.60;99.90
8489;DHT22;4281;45.772;12.852;2022-07-12T04:38:59;22.60;99.90
8489;DHT22;4281;45.772;12.852;2022-07-12T04:41:28;22.50;99.90
8489;DHT22;4281;45.772;12.852;2022-07-12T04:43:56;22.80;99.90
8489;DHT22;4281;45.772;12.852;2022-07-12T04:46:24;22.70;99.90
8489;DHT22;4281;45.772;12.852;2022-07-12T04:48:53;22.60;99.90
8489;DHT22;4281;45.772;12.852;2022-07-12T04:51:23;22.80;99.90
8489;DHT22;4281;45.772;12.852;2022-07-12T04:53:52;22.60;99.90
8489;DHT22;4281;45.772;12.852;2022-07-12T04:56:20;22.80;99.90
8489;DHT22;4281;45.772;12.852;2022-07-12T04:58:49;22.80;99.90
8489;DHT22;4281;45.772;12.852;2022-07-12T05:01:25;22.90;99.90
8489;DHT22;4281;45.772;12.852;2022-07-12T05:03:54;23.00;99.90
8489;DHT22;4281;45.772;12.852;2022-07-12T05:06:24;22.90;99.90
8489;DHT22;4281;45.772;12.852;2022-07-12T05:08:52;23.00;99.90
8489;DHT22;4281;45.772;12.852;2022-07-12T05:11:21;23.20;99.90
8489;DHT22;4281;45.772;12.852;2022-07-12T05:13:49;23.00;99.90
8489;DHT22;4281;45.772;12.852;2022-07-12T05:16:18;23.10;99.90
8489;DHT22;4281;45.772;12.852;2022-07-12T05:21:30;23.10;99.90
8489;DHT22;4281;45.772;12.852;2022-07-12T05:24:01;22.90;99.90
8489;DHT22;4281;45.772;12.852;2022-07-12T05:26:30;22.70;99.90
8489;DHT22;4281;45.772;12.852;2022-07-12T05:28:59;22.80;99.90
8489;DHT22;4281;45.772;12.852;2022-07-12T05:31:27;22.90;99.90
8489;DHT22;4281;45.772;12.852;2022-07-12T05:33:56;23.00;99.90
8489;DHT22;4281;45.772;12.852;2022-07-12T05:39:13;23.10;99.90
8489;DHT22;4281;45.772;12.852;2022-07-12T05:41:42;23.20;99.90
8489;DHT22;4281;45.772;12.852;2022-07-12T05:44:11;23.10;99.90
8489;DHT22;4281;45.772;12.852;2022-07-12T05:46:39;23.20;99.90
8489;DHT22;4281;45.772;12.852;2022-07-12T05:49:08;23.30;99.90
8489;DHT22;4281;45.772;12.852;2022-07-12T05:51:36;23.50;99.90
8489;DHT22;4281;45.772;12.852;2022-07-12T05:54:23;23.90;99.90
8489;DHT22;4281;45.772;12.852;2022-07-12T05:56:51;24.20;99.90
8489;DHT22;4281;45.772;12.852;2022-07-12T05:59:20;24.20;99.90
8489;DHT22;4281;45.772;12.852;2022-07-12T06:01:49;24.00;99.90
8489;DHT22;4281;45.772;12.852;2022-07-12T06:04:17;24.00;99.90
8489;DHT22;4281;45.772;12.852;2022-07-12T06:06:46;24.10;99.90
8489;DHT22;4281;45.772;12.852;2022-07-12T06:09:21;24.30;99.90
8489;DHT22;4281;45.772;12.852;2022-07-12T06:11:50;24.50;99.90
8489;DHT22;4281;45.772;12.852;2022-07-12T06:14:19;24.60;99.90
8489;DHT22;4281;45.772;12.852;2022-07-12T06:16:47;24.70;99.90
8489;DHT22;4281;45.772;12.852;2022-07-12T06:19:16;24.80;99.90
8489;DHT22;4281;45.772;12.852;2022-07-12T06:21:44;24.90;99.90
8489;DHT22;4281;45.772;12.852;2022-07-12T06:24:12;25.10;99.90
8489;DHT22;4281;45.772;12.852;2022-07-12T06:26:41;25.20;99.90
8489;DHT22;4281;45.772;12.852;2022-07-12T06:29:11;25.20;99.90
8489;DHT22;4281;45.772;12.852;2022-07-12T06:31:39;25.00;99.90
8489;DHT22;4281;45.772;12.852;2022-07-12T06:34:07;25.00;99.90
8489;DHT22;4281;45.772;12.852;2022-07-12T06:36:36;25.10;99.90
8489;DHT22;4281;45.772;12.852;2022-07-12T06:39:04;25.10;99.90
8489;DHT22;4281;45.772;12.852;2022-07-12T06:41:33;25.20;99.90
8489;DHT22;4281;45.772;12.852;2022-07-12T06:44:01;25.20;99.90
8489;DHT22;4281;45.772;12.852;2022-07-12T06:46:31;25.40;99.90
8489;DHT22;4281;45.772;12.852;2022-07-12T06:48:59;25.60;99.90
8489;DHT22;4281;45.772;12.852;2022-07-12T06:51:28;25.40;99.90
8489;DHT22;4281;45.772;12.852;2022-07-12T06:53:57;25.40;99.90
8489;DHT22;4281;45.772;12.852;2022-07-12T06:56:25;25.50;99.90
8489;DHT22;4281;45.772;12.852;2022-07-12T06:58:54;25.50;99.90
8489;DHT22;4281;45.772;12.852;2022-07-12T07:01:22;25.60;99.90
8489;DHT22;4281;45.772;12.852;2022-07-12T07:03:52;25.80;99.90
8489;DHT22;4281;45.772;12.852;2022-07-12T07:06:20;25.80;99.90
8489;DHT22;4281;45.772;12.852;2022-07-12T07:08:48;26.00;99.90
8489;DHT22;4281;45.772;12.852;2022-07-12T07:11:17;26.30;99.90
8489;DHT22;4281;45.772;12.852;2022-07-12T07:13:45;26.20;99.90
8489;DHT22;4281;45.772;12.852;2022-07-12T07:19:13;26.00;99.90
8489;DHT22;4281;45.772;12.852;2022-07-12T07:21:48;26.00;99.90
8489;DHT22;4281;45.772;12.852;2022-07-12T07:24:17;26.00;99.90
8489;DHT22;4281;45.772;12.852;2022-07-12T07:26:45;25.70;99.90
8489;DHT22;4281;45.772;12.852;2022-07-12T07:29:13;25.80;99.90
8489;DHT22;4281;45.772;12.852;2022-07-12T07:31:59;26.00;99.90
8489;DHT22;4281;45.772;12.852;2022-07-12T07:34:28;26.10;99.90
8489;DHT22;4281;45.772;12.852;2022-07-12T07:36:57;26.00;99.90
8489;DHT22;4281;45.772;12.852;2022-07-12T07:39:25;26.10;99.90
8489;DHT22;4281;45.772;12.852;2022-07-12T07:41:54;26.30;99.90
8489;DHT22;4281;45.772;12.852;2022-07-12T07:44:22;26.50;99.90
8489;DHT22;4281;45.772;12.852;2022-07-12T07:46:59;26.60;99.90
8489;DHT22;4281;45.772;12.852;2022-07-12T07:49:29;26.70;99.90
8489;DHT22;4281;45.772;12.852;2022-07-12T07:51:59;26.80;99.90
8489;DHT22;4281;45.772;12.852;2022-07-12T07:54:28;26.90;99.90
8489;DHT22;4281;45.772;12.852;2022-07-12T07:56:57;27.00;99.90
8489;DHT22;4281;45.772;12.852;2022-07-12T07:59:28;27.10;99.90
8489;DHT22;4281;45.772;12.852;2022-07-12T08:01:57;27.20;99.90
8489;DHT22;4281;45.772;12.852;2022-07-12T08:04:26;27.20;99.90
8489;DHT22;4281;45.772;12.852;2022-07-12T08:06:55;27.40;99.90
8489;DHT22;4281;45.772;12.852;2022-07-12T08:09:25;27.30;99.90
8489;DHT22;4281;45.772;12.852;2022-07-12T08:11:53;27.30;99.90
8489;DHT22;4281;45.772;12.852;2022-07-12T08:14:22;27.40;99.90
8489;DHT22;4281;45.772;12.852;2022-07-12T08:16:50;27.50;99.90
8489;DHT22;4281;45.772;12.852;2022-07-12T08:19:18;27.50;99.90
8489;DHT22;4281;45.772;12.852;2022-07-12T08:21:47;27.50;99.90
8489;DHT22;4281;45.772;12.852;2022-07-12T08:24:16;27.70;99.90
8489;DHT22;4281;45.772;12.852;2022-07-12T08:26:45;27.80;99.90
8489;DHT22;4281;45.772;12.852;2022-07-12T08:29:13;27.70;99.90
8489;DHT22;4281;45.772;12.852;2022-07-12T08:31:42;27.90;99.90
8489;DHT22;4281;45.772;12.852;2022-07-12T08:34:10;27.90;99.90
8489;DHT22;4281;45.772;12.852;2022-07-12T08:36:38;28.10;99.90
8489;DHT22;4281;45.772;12.852;2022-07-12T08:39:08;28.20;99.90
8489;DHT22;4281;45.772;12.852;2022-07-12T08:41:37;28.10;99.90
8489;DHT22;4281;45.772;12.852;2022-07-12T08:44:06;28.20;99.90
8489;DHT22;4281;45.772;12.852;2022-07-12T08:46:35;28.30;99.90
8489;DHT22;4281;45.772;12.852;2022-07-12T08:49:06;28.50;99.90
8489;DHT22;4281;45.772;12.852;2022-07-12T08:51:34;28.40;99.90
8489;DHT22;4281;45.772;12.852;2022-07-12T08:54:07;28.10;99.90
8489;DHT22;4281;45.772;12.852;2022-07-12T08:56:38;28.30;99.90
8489;DHT22;4281;45.772;12.852;2022-07-12T08:59:14;28.40;99.90
8489;DHT22;4281;45.772;12.852;2022-07-12T09:01:44;28.40;99.90
8489;DHT22;4281;45.772;12.852;2022-07-12T09:04:15;28.50;99.90
8489;DHT22;4281;45.772;12.852;2022-07-12T09:06:45;28.30;99.90
8489;DHT22;4281;45.772;12.852;2022-07-12T09:09:26;28.50;99.90
8489;DHT22;4281;45.772;12.852;2022-07-12T09:11:56;28.60;99.90
8489;DHT22;4281;45.772;12.852;2022-07-12T09:14:25;28.60;99.90
8489;DHT22;4281;45.772;12.852;2022-07-12T09:17:01;28.80;99.90
8489;DHT22;4281;45.772;12.852;2022-07-12T09:19:32;28.90;99.90
8489;DHT22;4281;45.772;12.852;2022-07-12T09:22:00;28.90;99.90
8489;DHT22;4281;45.772;12.852;2022-07-12T09:24:29;29.10;99.90
8489;DHT22;4281;45.772;12.852;2022-07-12T09:27:01;29.00;99.90
8489;DHT22;4281;45.772;12.852;2022-07-12T09:29:30;29.10;99.90
8489;DHT22;4281;45.772;12.852;2022-07-12T09:32:06;29.10;99.90
8489;DHT22;4281;45.772;12.852;2022-07-12T09:34:56;29.10;99.90
8489;DHT22;4281;45.772;12.852;2022-07-12T09:37:42;29.20;99.90
8489;DHT22;4281;45.772;12.852;2022-07-12T09:40:10;29.10;99.90
8489;DHT22;4281;45.772;12.852;2022-07-12T09:42:41;29.20;99.90
8489;DHT22;4281;45.772;12.852;2022-07-12T09:45:10;29.00;99.90
8489;DHT22;4281;45.772;12.852;2022-07-12T09:47:38;28.70;99.90
8489;DHT22;4281;45.772;12.852;2022-07-12T09:50:08;28.40;99.90
8489;DHT22;4281;45.772;12.852;2022-07-12T09:52:37;28.30;99.90
8489;DHT22;4281;45.772;12.852;2022-07-12T09:55:09;28.10;99.90
8489;DHT22;4281;45.772;12.852;2022-07-12T09:57:40;28.20;99.90
8489;DHT22;4281;45.772;12.852;2022-07-12T10:00:11;28.30;99.90
8489;DHT22;4281;45.772;12.852;2022-07-12T10:02:40;28.30;99.90
8489;DHT22;4281;45.772;12.852;2022-07-12T10:05:10;28.30;99.90
8489;DHT22;4281;45.772;12.852;2022-07-12T10:07:39;28.20;99.90
8489;DHT22;4281;45.772;12.852;2022-07-12T10:10:08;28.20;99.90
8489;DHT22;4281;45.772;12.852;2022-07-12T10:12:37;28.30;99.90
8489;DHT22;4281;45.772;12.852;2022-07-12T10:15:10;28.40;99.90
8489;DHT22;4281;45.772;12.852;2022-07-12T10:17:42;28.40;99.90
8489;DHT22;4281;45.772;12.852;2022-07-12T10:20:16;28.40;99.90
8489;DHT22;4281;45.772;12.852;2022-07-12T10:22:45;28.40;99.90
8489;DHT22;4281;45.772;12.852;2022-07-12T10:25:30;28.40;99.90
8489;DHT22;4281;45.772;12.852;2022-07-12T10:28:00;28.50;99.90
8489;DHT22;4281;45.772;12.852;2022-07-12T10:30:30;28.40;99.90
8489;DHT22;4281;45.772;12.852;2022-07-12T10:33:15;28.50;99.90
8489;DHT22;4281;45.772;12.852;2022-07-12T10:35:58;28.50;99.90
8489;DHT22;4281;45.772;12.852;2022-07-12T10:38:27;28.70;99.90
8489;DHT22;4281;45.772;12.852;2022-07-12T10:40:56;28.70;99.90
8489;DHT22;4281;45.772;12.852;2022-07-12T10:43:28;28.90;99.90
8489;DHT22;4281;45.772;12.852;2022-07-12T10:46:21;29.10;99.90
8489;DHT22;4281;45.772;12.852;2022-07-12T10:48:51;29.20;99.90
8489;DHT22;4281;45.772;12.852;2022-07-12T10:51:21;29.40;99.90
8489;DHT22;4281;45.772;12.852;2022-07-12T10:53:49;29.60;99.90
8489;DHT22;4281;45.772;12.852;2022-07-12T10:56:20;29.70;99.90
8489;DHT22;4281;45.772;12.852;2022-07-12T10:58:56;29.70;99.90
8489;DHT22;4281;45.772;12.852;2022-07-12T11:01:28;29.60;99.90
8489;DHT22;4281;45.772;12.852;2022-07-12T11:04:04;29.50;99.90
8489;DHT22;4281;45.772;12.852;2022-07-12T11:06:35;29.20;99.90
8489;DHT22;4281;45.772;12.852;2022-07-12T11:09:05;29.10;99.90
8489;DHT22;4281;45.772;12.852;2022-07-12T11:11:40;29.20;99.90
8489;DHT22;4281;45.772;12.852;2022-07-12T11:14:11;29.20;99.90
8489;DHT22;4281;45.772;12.852;2022-07-12T11:16:45;29.60;99.90
8489;DHT22;4281;45.772;12.852;2022-07-12T11:19:14;29.70;99.90
8489;DHT22;4281;45.772;12.852;2022-07-12T11:21:43;29.70;99.90
8489;DHT22;4281;45.772;12.852;2022-07-12T11:24:16;29.90;99.90
8489;DHT22;4281;45.772;12.852;2022-07-12T11:26:45;29.70;99.90
8489;DHT22;4281;45.772;12.852;2022-07-12T11:29:13;29.60;99.90
8489;DHT22;4281;45.772;12.852;2022-07-12T11:31:42;29.80;99.90
8489;DHT22;4281;45.772;12.852;2022-07-12T11:34:20;29.90;99.90
8489;DHT22;4281;45.772;12.852;2022-07-12T11:36:51;30.10;99.90
8489;DHT22;4281;45.772;12.852;2022-07-12T11:39:31;30.20;99.90
8489;DHT22;4281;45.772;12.852;2022-07-12T11:42:00;30.30;99.90
8489;DHT22;4281;45.772;12.852;2022-07-12T11:44:44;30.30;99.90
8489;DHT22;4281;45.772;12.852;2022-07-12T11:47:13;30.10;99.90
8489;DHT22;4281;45.772;12.852;2022-07-12T11:49:44;30.20;99.90
8489;DHT22;4281;45.772;12.852;2022-07-12T11:52:13;30.10;99.90
8489;DHT22;4281;45.772;12.852;2022-07-12T11:54:43;30.20;99.90
8489;DHT22;4281;45.772;12.852;2022-07-12T11:57:14;30.30;99.90
8489;DHT22;4281;45.772;12.852;2022-07-12T11:59:42;30.30;99.90
8489;DHT22;4281;45.772;12.852;2022-07-12T12:02:13;30.40;99.90
8489;DHT22;4281;45.772;12.852;2022-07-12T12:04:49;30.30;99.90
8489;DHT22;4281;45.772;12.852;2022-07-12T12:07:19;30.50;99.90
8489;DHT22;4281;45.772;12.852;2022-07-12T12:12:56;30.60;99.90
8489;DHT22;4281;45.772;12.852;2022-07-12T12:15:27;30.80;99.90
8489;DHT22;4281;45.772;12.852;2022-07-12T12:17:57;31.10;99.90
8489;DHT22;4281;45.772;12.852;2022-07-12T12:20:29;31.00;99.90
8489;DHT22;4281;45.772;12.852;2022-07-12T12:22:58;30.80;99.90
8489;DHT22;4281;45.772;12.852;2022-07-12T12:25:29;30.70;99.90
8489;DHT22;4281;45.772;12.852;2022-07-12T12:27:59;30.70;99.90
8489;DHT22;4281;45.772;12.852;2022-07-12T12:30:51;30.70;99.90
8489;DHT22;4281;45.772;12.852;2022-07-12T12:33:43;30.80;99.90
8489;DHT22;4281;45.772;12.852;2022-07-12T12:36:18;31.00;99.90
8489;DHT22;4281;45.772;12.852;2022-07-12T12:38:49;31.10;99.90
8489;DHT22;4281;45.772;12.852;2022-07-12T12:41:18;31.30;99.90
8489;DHT22;4281;45.772;12.852;2022-07-12T12:43:57;31.40;99.90
8489;DHT22;4281;45.772;12.852;2022-07-12T12:46:50;31.40;99.90
8489;DHT22;4281;45.772;12.852;2022-07-12T12:49:25;31.30;99.90
8489;DHT22;4281;45.772;12.852;2022-07-12T12:52:12;31.20;99.90
8489;DHT22;4281;45.772;12.852;2022-07-12T12:54:40;31.10;99.90
8489;DHT22;4281;45.772;12.852;2022-07-12T12:57:09;31.00;99.90
8489;DHT22;4281;45.772;12.852;2022-07-12T12:59:37;31.10;99.90
8489;DHT22;4281;45.772;12.852;2022-07-12T13:02:07;30.80;99.90
8489;DHT22;4281;45.772;12.852;2022-07-12T13:04:36;30.70;99.90
8489;DHT22;4281;45.772;12.852;2022-07-12T13:07:06;30.80;99.90
8489;DHT22;4281;45.772;12.852;2022-07-12T13:09:41;30.80;99.90
8489;DHT22;4281;45.772;12.852;2022-07-12T13:12:10;30.90;99.90
8489;DHT22;4281;45.772;12.852;2022-07-12T13:14:38;31.00;99.90
8489;DHT22;4281;45.772;12.852;2022-07-12T13:17:06;31.00;99.90
8489;DHT22;4281;45.772;12.852;2022-07-12T13:19:35;30.70;99.90
8489;DHT22;4281;45.772;12.852;2022-07-12T13:22:07;30.70;99.90
8489;DHT22;4281;45.772;12.852;2022-07-12T13:24:36;30.90;99.90
8489;DHT22;4281;45.772;12.852;2022-07-12T13:27:06;30.90;99.90
8489;DHT22;4281;45.772;12.852;2022-07-12T13:29:34;31.00;99.90
8489;DHT22;4281;45.772;12.852;2022-07-12T13:32:03;31.00;99.90
8489;DHT22;4281;45.772;12.852;2022-07-12T13:34:32;30.80;99.90
8489;DHT22;4281;45.772;12.852;2022-07-12T13:37:00;30.80;99.90
8489;DHT22;4281;45.772;12.852;2022-07-12T13:39:29;30.80;99.90
8489;DHT22;4281;45.772;12.852;2022-07-12T13:42:16;30.80;99.90
8489;DHT22;4281;45.772;12.852;2022-07-12T13:44:44;30.90;99.50
8489;DHT22;4281;45.772;12.852;2022-07-12T13:47:13;30.80;99.70
8489;DHT22;4281;45.772;12.852;2022-07-12T13:49:41;30.90;99.10
8489;DHT22;4281;45.772;12.852;2022-07-12T13:52:10;31.10;99.00
8489;DHT22;4281;45.772;12.852;2022-07-12T13:54:38;31.00;98.90
8489;DHT22;4281;45.772;12.852;2022-07-12T13:57:06;30.80;99.00
8489;DHT22;4281;45.772;12.852;2022-07-12T13:59:37;30.90;99.40
8489;DHT22;4281;45.772;12.852;2022-07-12T14:02:06;30.90;99.20
8489;DHT22;4281;45.772;12.852;2022-07-12T14:04:34;30.90;98.90
8489;DHT22;4281;45.772;12.852;2022-07-12T14:07:03;30.90;98.80
8489;DHT22;4281;45.772;12.852;2022-07-12T14:09:31;30.80;99.00
8489;DHT22;4281;45.772;12.852;2022-07-12T14:11:59;30.80;98.70
8489;DHT22;4281;45.772;12.852;2022-07-12T14:14:29;30.80;98.70
8489;DHT22;4281;45.772;12.852;2022-07-12T14:17:17;31.00;98.80
8489;DHT22;4281;45.772;12.852;2022-07-12T14:19:45;31.00;99.10
8489;DHT22;4281;45.772;12.852;2022-07-12T14:22:14;31.10;98.50
8489;DHT22;4281;45.772;12.852;2022-07-12T14:24:42;31.00;98.10
8489;DHT22;4281;45.772;12.852;2022-07-12T14:27:11;30.90;98.20
8489;DHT22;4281;45.772;12.852;2022-07-12T14:29:39;30.90;99.40
8489;DHT22;4281;45.772;12.852;2022-07-12T14:32:07;30.80;98.60
8489;DHT22;4281;45.772;12.852;2022-07-12T14:34:37;30.80;98.00
8489;DHT22;4281;45.772;12.852;2022-07-12T14:37:06;30.90;98.40
8489;DHT22;4281;45.772;12.852;2022-07-12T14:39:34;30.90;98.60
8489;DHT22;4281;45.772;12.852;2022-07-12T14:42:03;30.90;98.40
8489;DHT22;4281;45.772;12.852;2022-07-12T14:44:31;30.90;97.90
8489;DHT22;4281;45.772;12.852;2022-07-12T14:46:59;30.80;98.00
8489;DHT22;4281;45.772;12.852;2022-07-12T14:49:28;30.80;97.50
8489;DHT22;4281;45.772;12.852;2022-07-12T14:51:58;30.80;97.20
8489;DHT22;4281;45.772;12.852;2022-07-12T14:54:26;30.80;97.20
8489;DHT22;4281;45.772;12.852;2022-07-12T14:56:54;30.80;98.20
8489;DHT22;4281;45.772;12.852;2022-07-12T14:59:23;30.80;97.60
8489;DHT22;4281;45.772;12.852;2022-07-12T15:01:51;30.90;97.70
8489;DHT22;4281;45.772;12.852;2022-07-12T15:04:20;30.80;98.00
8489;DHT22;4281;45.772;12.852;2022-07-12T15:06:48;30.80;98.40
8489;DHT22;4281;45.772;12.852;2022-07-12T15:09:18;30.80;98.30
8489;DHT22;4281;45.772;12.852;2022-07-12T15:11:46;30.80;98.20
8489;DHT22;4281;45.772;12.852;2022-07-12T15:14:15;30.80;98.00
8489;DHT22;4281;45.772;12.852;2022-07-12T15:16:43;30.80;98.40
8489;DHT22;4281;45.772;12.852;2022-07-12T15:19:29;30.70;98.00
8489;DHT22;4281;45.772;12.852;2022-07-12T15:21:57;30.80;98.10
8489;DHT22;4281;45.772;12.852;2022-07-12T15:24:29;30.70;98.10
8489;DHT22;4281;45.772;12.852;2022-07-12T15:26:59;30.70;97.60
8489;DHT22;4281;45.772;12.852;2022-07-12T15:29:29;30.80;97.90
8489;DHT22;4281;45.772;12.852;2022-07-12T15:31:59;30.70;97.80
8489;DHT22;4281;45.772;12.852;2022-07-12T15:34:27;30.70;98.00
8489;DHT22;4281;45.772;12.852;2022-07-12T15:36:56;30.60;97.70
8489;DHT22;4281;45.772;12.852;2022-07-12T15:39:25;30.60;97.80
8489;DHT22;4281;45.772;12.852;2022-07-12T15:41:55;30.50;98.00
8489;DHT22;4281;45.772;12.852;2022-07-12T15:44:23;30.60;98.30
8489;DHT22;4281;45.772;12.852;2022-07-12T15:46:52;30.50;98.20
8489;DHT22;4281;45.772;12.852;2022-07-12T15:49:20;30.50;98.50
8489;DHT22;4281;45.772;12.852;2022-07-12T15:51:49;30.50;98.20
8489;DHT22;4281;45.772;12.852;2022-07-12T15:54:34;30.50;98.20
8489;DHT22;4281;45.772;12.852;2022-07-12T15:57:05;30.50;98.00
8489;DHT22;4281;45.772;12.852;2022-07-12T15:59:34;30.50;97.80
8489;DHT22;4281;45.772;12.852;2022-07-12T16:02:06;30.30;97.70
8489;DHT22;4281;45.772;12.852;2022-07-12T16:04:36;30.20;97.90
8489;DHT22;4281;45.772;12.852;2022-07-12T16:07:04;30.30;97.80
8489;DHT22;4281;45.772;12.852;2022-07-12T16:09:34;30.20;97.80
8489;DHT22;4281;45.772;12.852;2022-07-12T16:12:04;30.10;97.80
8489;DHT22;4281;45.772;12.852;2022-07-12T16:14:32;30.10;98.10